createdAt,value
2018-02-16T00:01:09.088Z,80.39
2018-02-16T00:03:36.573Z,80.20
2018-02-16T00:06:04.032Z,80.06
2018-02-16T00:08:31.468Z,80.62
2018-02-16T00:10:58.968Z,81.33
2018-02-16T00:13:26.418Z,81.21
2018-02-16T00:15:53.980Z,81.80
2018-02-16T00:18:21.442Z,82.05
2018-02-16T00:20:49.073Z,80.97
2018-02-16T00:23:16.514Z,81.24
2018-02-16T00:25:44.126Z,81.43
2018-02-16T00:28:11.652Z,80.05
2018-02-16T00:30:39.081Z,80.32
2018-02-16T00:33:06.538Z,80.30
2018-02-16T00:35:33.985Z,81.05
2018-02-16T00:38:01.441Z,80.30
2018-02-16T00:40:28.874Z,80.31
2018-02-16T00:42:56.312Z,81.41
2018-02-16T00:45:23.736Z,81.17
2018-02-16T00:47:51.198Z,81.49
2018-02-16T00:50:18.629Z,81.57
2018-02-16T00:52:46.124Z,81.84
2018-02-16T00:55:13.668Z,81.49
2018-02-16T00:57:41.887Z,82.41
2018-02-16T01:00:09.336Z,81.58
2018-02-16T01:02:37.521Z,81.66
2018-02-16T01:05:04.981Z,81.72
2018-02-16T01:07:32.409Z,81.59
2018-02-16T01:09:59.868Z,81.57
2018-02-16T01:12:27.306Z,81.06
2018-02-16T01:14:54.785Z,81.16
2018-02-16T01:17:22.215Z,81.78
2018-02-16T01:19:49.692Z,83.11
2018-02-16T01:22:17.128Z,83.35
2018-02-16T01:24:44.556Z,83.76
2018-02-16T01:27:12.063Z,84.12
2018-02-16T01:29:39.505Z,82.93
2018-02-16T01:32:06.992Z,82.10
2018-02-16T01:34:34.518Z,82.48
2018-02-16T01:37:02.098Z,82.44
2018-02-16T01:39:29.544Z,82.20
2018-02-16T01:41:57.007Z,82.68
2018-02-16T01:44:24.537Z,83.98
2018-02-16T01:46:51.990Z,83.19
2018-02-16T01:49:19.426Z,83.43
2018-02-16T01:51:46.868Z,83.08
2018-02-16T01:54:14.329Z,82.57
2018-02-16T01:56:42.064Z,82.96
2018-02-16T01:59:09.585Z,82.75
2018-02-16T02:01:37.013Z,82.97
2018-02-16T02:04:04.456Z,83.13
2018-02-16T02:06:31.906Z,82.97
2018-02-16T02:08:59.369Z,83.52
2018-02-16T02:11:26.800Z,82.61
2018-02-16T02:13:54.247Z,82.31
2018-02-16T02:16:21.683Z,82.66
2018-02-16T02:18:49.224Z,82.36
2018-02-16T02:21:16.681Z,83.26
2018-02-16T02:23:44.132Z,82.56
2018-02-16T02:26:12.700Z,82.39
2018-02-16T02:28:40.173Z,82.43
2018-02-16T02:31:07.734Z,81.27
2018-02-16T02:33:35.191Z,80.74
2018-02-16T02:36:02.648Z,80.94
2018-02-16T02:38:30.125Z,81.27
2018-02-16T02:40:57.767Z,80.51
2018-02-16T02:43:25.232Z,81.76
2018-02-16T02:45:52.755Z,82.15
2018-02-16T02:48:20.192Z,81.75
2018-02-16T02:50:47.645Z,81.79
2018-02-16T02:53:15.094Z,81.90
2018-02-16T02:55:43.332Z,81.25
2018-02-16T02:58:10.781Z,81.08
2018-02-16T03:00:38.237Z,80.64
2018-02-16T03:03:05.680Z,80.62
2018-02-16T03:05:33.124Z,80.70
2018-02-16T03:08:00.592Z,80.00
2018-02-16T03:10:28.073Z,79.63
2018-02-16T03:12:55.520Z,81.03
2018-02-16T03:15:22.981Z,82.81
2018-02-16T03:17:50.408Z,82.28
2018-02-16T03:20:17.842Z,82.98
2018-02-16T03:22:45.301Z,82.95
2018-02-16T03:25:12.749Z,83.69
2018-02-16T03:27:40.799Z,82.89
2018-02-16T03:30:08.238Z,82.93
2018-02-16T03:32:35.690Z,82.05
2018-02-16T03:35:03.300Z,83.10
2018-02-16T03:37:30.757Z,83.04
2018-02-16T03:39:58.280Z,84.57
2018-02-16T03:42:25.729Z,84.21
2018-02-16T03:44:53.178Z,83.80
2018-02-16T03:47:20.689Z,82.89
2018-02-16T03:49:48.124Z,83.16
2018-02-16T03:52:15.604Z,83.49
2018-02-16T03:54:43.060Z,83.05
2018-02-16T03:57:10.485Z,81.77
2018-02-16T03:59:38.061Z,81.69
2018-02-16T04:02:05.569Z,82.57
2018-02-16T04:04:33.026Z,83.04
2018-02-16T04:07:00.504Z,82.95
2018-02-16T04:09:27.964Z,83.55
2018-02-16T04:11:55.410Z,83.56
2018-02-16T04:14:22.870Z,83.54
2018-02-16T04:16:50.296Z,83.42
2018-02-16T04:19:17.767Z,81.78
2018-02-16T04:21:45.204Z,81.22
2018-02-16T04:24:12.656Z,81.37
2018-02-16T04:26:40.089Z,82.19
2018-02-16T04:29:07.605Z,81.69
2018-02-16T04:31:35.045Z,81.68
2018-02-16T04:34:02.481Z,82.82
2018-02-16T04:36:30.006Z,82.62
2018-02-16T04:38:57.523Z,82.58
2018-02-16T04:41:24.997Z,82.47
2018-02-16T04:43:52.421Z,82.27
2018-02-16T04:46:19.868Z,81.67
2018-02-16T04:48:47.372Z,81.36
2018-02-16T04:51:14.817Z,82.06
2018-02-16T04:53:42.948Z,80.69
2018-02-16T04:56:10.417Z,80.52
2018-02-16T04:58:37.846Z,80.69
2018-02-16T05:01:05.343Z,81.86
2018-02-16T05:03:32.780Z,81.19
2018-02-16T05:06:00.242Z,81.48
2018-02-16T05:08:27.671Z,81.16
2018-02-16T05:10:55.125Z,81.57
2018-02-16T05:13:22.554Z,81.13
2018-02-16T05:15:50.269Z,80.61
2018-02-16T05:18:17.798Z,80.13
2018-02-16T05:20:45.236Z,80.27
2018-02-16T05:23:13.781Z,80.67
2018-02-16T05:25:41.230Z,80.60
2018-02-16T05:28:08.685Z,80.63
2018-02-16T05:30:36.123Z,80.94
2018-02-16T05:33:03.680Z,80.83
2018-02-16T05:35:31.125Z,82.14
2018-02-16T05:37:58.592Z,82.35
2018-02-16T05:40:26.042Z,83.39
2018-02-16T05:42:53.529Z,82.19
2018-02-16T05:45:21.010Z,82.06
2018-02-16T05:47:48.489Z,81.72
2018-02-16T05:50:15.928Z,80.90
2018-02-16T05:52:44.285Z,80.65
2018-02-16T05:55:11.741Z,80.67
2018-02-16T05:57:39.197Z,81.69
2018-02-16T06:00:07.647Z,81.37
2018-02-16T06:02:35.271Z,81.29
2018-02-16T06:05:02.896Z,82.02
2018-02-16T06:07:30.340Z,81.02
2018-02-16T06:09:57.796Z,81.39
2018-02-16T06:25:33.082Z,78.63
2018-02-16T06:28:00.540Z,79.17
2018-02-16T06:30:28.013Z,79.11
2018-02-16T06:32:55.437Z,80.27
2018-02-16T06:35:22.893Z,80.35
2018-02-16T06:37:50.351Z,81.23
2018-02-16T06:40:18.015Z,80.40
2018-02-16T06:42:45.486Z,80.79
2018-02-16T06:45:13.269Z,81.12
2018-02-16T06:47:40.711Z,80.77
2018-02-16T06:50:08.254Z,80.74
2018-02-16T06:52:35.729Z,80.67
2018-02-16T06:55:03.192Z,81.09
2018-02-16T06:57:30.627Z,80.67
2018-02-16T06:59:58.113Z,81.62
2018-02-16T07:02:25.549Z,81.29
2018-02-16T07:04:53.002Z,82.60
2018-02-16T07:07:20.454Z,81.82
2018-02-16T07:09:47.916Z,81.44
2018-02-16T07:12:15.383Z,80.32
2018-02-16T07:14:42.826Z,81.68
2018-02-16T07:17:10.350Z,82.13
2018-02-16T07:19:37.794Z,82.19
2018-02-16T07:22:05.237Z,81.64
2018-02-16T07:24:32.670Z,80.39
2018-02-16T07:27:00.141Z,80.75
2018-02-16T07:29:27.577Z,82.10
2018-02-16T07:31:55.030Z,82.40
2018-02-16T07:34:22.482Z,81.79
2018-02-16T07:36:49.922Z,80.28
2018-02-16T07:39:17.378Z,80.72
2018-02-16T07:41:44.944Z,79.64
2018-02-16T07:44:12.433Z,79.88
2018-02-16T07:46:39.873Z,80.19
2018-02-16T07:49:07.414Z,79.77
2018-02-16T07:51:34.860Z,79.23
2018-02-16T07:54:02.583Z,78.94
2018-02-16T07:56:30.021Z,79.92
2018-02-16T07:58:57.644Z,81.60
2018-02-16T08:01:25.131Z,81.06
2018-02-16T08:03:52.583Z,81.21
2018-02-16T08:06:20.015Z,81.05
2018-02-16T08:08:47.525Z,81.04
2018-02-16T08:11:14.971Z,80.75
2018-02-16T08:13:42.581Z,80.14
2018-02-16T08:16:10.029Z,79.29
2018-02-16T08:18:37.485Z,78.73
2018-02-16T08:21:05.101Z,78.97
2018-02-16T08:23:32.753Z,79.14
2018-02-16T08:26:00.201Z,79.25
2018-02-16T08:28:27.649Z,79.82
2018-02-16T08:30:55.107Z,79.48
2018-02-16T08:33:22.547Z,79.91
2018-02-16T08:35:50.008Z,79.75
2018-02-16T08:38:17.446Z,80.09
2018-02-16T08:40:45.054Z,79.26
2018-02-16T08:43:12.497Z,78.79
2018-02-16T08:45:39.951Z,79.63
2018-02-16T08:48:07.389Z,80.37
2018-02-16T08:50:34.847Z,81.53
2018-02-16T08:53:02.280Z,81.32
2018-02-16T08:55:29.732Z,81.82
2018-02-16T08:57:57.546Z,80.15
2018-02-16T09:00:25.235Z,80.31
2018-02-16T09:02:52.970Z,81.10
2018-02-16T09:05:22.937Z,81.35
2018-02-16T09:07:52.896Z,81.62
2018-02-16T09:10:20.488Z,81.35
2018-02-16T09:12:48.022Z,81.05
2018-02-16T09:15:17.961Z,80.71
2018-02-16T09:17:45.446Z,80.47
2018-02-16T09:20:12.968Z,80.29
2018-02-16T09:22:40.654Z,80.16
2018-02-16T09:25:08.133Z,80.29
2018-02-16T09:27:35.586Z,79.06
2018-02-16T09:30:03.079Z,78.78
2018-02-16T09:32:30.573Z,78.31
2018-02-16T09:34:58.090Z,78.18
2018-02-16T09:37:25.637Z,78.36
2018-02-16T09:39:53.843Z,78.98
2018-02-16T09:42:21.358Z,78.93
2018-02-16T09:44:48.844Z,78.24
2018-02-16T09:47:16.400Z,78.79
2018-02-16T09:49:43.888Z,78.80
2018-02-16T09:52:11.401Z,79.60
2018-02-16T09:54:38.900Z,80.47
2018-02-16T09:57:06.453Z,79.63
2018-02-16T09:59:33.956Z,79.68
2018-02-16T10:02:01.474Z,79.08
2018-02-16T10:04:28.953Z,78.10
2018-02-16T10:06:56.414Z,78.08
2018-02-16T10:09:23.901Z,77.89
2018-02-16T10:11:51.463Z,78.25
2018-02-16T10:14:18.925Z,77.96
2018-02-16T10:16:46.384Z,78.77
2018-02-16T10:19:14.166Z,78.67
2018-02-16T10:21:41.650Z,77.76
2018-02-16T10:24:09.325Z,77.90
2018-02-16T10:26:36.777Z,76.74
2018-02-16T10:29:04.273Z,77.15
2018-02-16T10:31:31.745Z,77.74
2018-02-16T10:33:59.186Z,77.85
2018-02-16T10:36:26.678Z,77.13
2018-02-16T10:38:54.126Z,75.95
2018-02-16T10:41:21.606Z,77.15
2018-02-16T10:43:49.157Z,76.16
2018-02-16T10:46:16.768Z,75.40
2018-02-16T10:48:45.236Z,76.74
2018-02-16T10:51:13.118Z,75.97
2018-02-16T10:53:40.590Z,75.20
2018-02-16T10:56:08.094Z,74.56
2018-02-16T10:58:36.700Z,73.73
2018-02-16T11:01:09.883Z,74.05
2018-02-16T11:03:38.363Z,73.12
2018-02-16T11:06:12.220Z,73.36
2018-02-16T11:08:45.303Z,73.41
2018-02-16T11:11:12.874Z,73.50
2018-02-16T11:13:40.412Z,72.73
2018-02-16T11:16:07.846Z,73.30
2018-02-16T11:18:35.395Z,73.14
2018-02-16T11:21:02.978Z,71.77
2018-02-16T11:23:30.510Z,72.42
2018-02-16T11:25:57.955Z,72.65
2018-02-16T11:28:25.483Z,70.65
2018-02-16T11:30:53.015Z,70.36
2018-02-16T11:33:20.801Z,71.76
2018-02-16T11:35:48.276Z,69.81
2018-02-16T11:38:15.810Z,69.28
2018-02-16T11:40:43.488Z,69.00
2018-02-16T11:43:10.975Z,69.79
2018-02-16T11:45:38.424Z,67.30
2018-02-16T11:48:06.384Z,68.05
2018-02-16T11:50:33.872Z,65.43
2018-02-16T11:53:01.483Z,66.85
2018-02-16T11:55:28.987Z,65.80
2018-02-16T11:57:56.421Z,65.92
2018-02-16T12:00:23.889Z,67.30
2018-02-16T12:02:52.714Z,65.68
2018-02-16T12:05:20.170Z,65.61
2018-02-16T12:07:47.644Z,65.34
2018-02-16T12:10:15.601Z,63.67
2018-02-16T12:12:43.069Z,61.63
2018-02-16T12:15:10.558Z,64.21
2018-02-16T12:17:38.038Z,63.17
2018-02-16T12:20:05.640Z,61.02
2018-02-16T12:22:33.153Z,63.15
2018-02-16T12:25:00.799Z,60.24
2018-02-16T12:27:28.293Z,58.62
2018-02-16T12:29:55.771Z,58.42
2018-02-16T12:32:23.264Z,56.92
2018-02-16T12:34:50.745Z,57.27
2018-02-16T12:37:19.321Z,56.59
2018-02-16T12:39:49.128Z,57.43
2018-02-16T12:42:16.914Z,56.16
2018-02-16T12:44:44.875Z,53.42
2018-02-16T12:47:12.347Z,53.81
2018-02-16T12:49:39.829Z,54.25
2018-02-16T12:52:07.453Z,53.87
2018-02-16T12:54:35.503Z,53.26
2018-02-16T12:57:02.973Z,53.20
2018-02-16T12:59:30.545Z,51.58
2018-02-16T13:01:58.044Z,52.90
2018-02-16T13:04:25.582Z,52.43
2018-02-16T13:06:53.222Z,51.25
2018-02-16T13:09:20.942Z,49.58
2018-02-16T13:11:48.410Z,47.53
2018-02-16T13:14:15.911Z,47.58
2018-02-16T13:16:43.499Z,46.22
2018-02-16T13:19:10.981Z,45.11
2018-02-16T13:21:38.429Z,43.34
2018-02-16T13:24:07.237Z,44.21
2018-02-16T13:26:34.749Z,44.90
2018-02-16T13:29:02.438Z,43.95
2018-02-16T13:31:29.901Z,40.75
2018-02-16T13:33:57.369Z,40.85
2018-02-16T13:36:24.864Z,41.67
2018-02-16T13:38:52.400Z,41.28
2018-02-16T13:41:19.890Z,43.76
2018-02-16T13:43:47.481Z,39.22
2018-02-16T13:46:15.104Z,37.45
2018-02-16T13:48:42.576Z,37.90
2018-02-16T13:51:10.020Z,38.46
2018-02-16T13:53:37.490Z,39.66
2018-02-16T13:56:04.945Z,38.59
2018-02-16T13:58:32.414Z,38.27
2018-02-16T14:00:59.997Z,35.71
2018-02-16T14:03:27.628Z,33.98
2018-02-16T14:05:55.108Z,34.30
2018-02-16T14:08:22.676Z,34.08
2018-02-16T14:10:50.252Z,34.10
2018-02-16T14:13:17.792Z,33.07
2018-02-16T14:15:45.244Z,33.09
2018-02-16T14:18:12.701Z,32.71
2018-02-16T14:20:40.141Z,33.45
2018-02-16T14:23:07.790Z,31.22
2018-02-16T14:25:35.250Z,31.61
2018-02-16T14:28:02.717Z,33.99
2018-02-16T14:30:30.202Z,29.53
2018-02-16T14:32:57.666Z,32.88
2018-02-16T14:35:25.160Z,30.15
2018-02-16T14:37:52.674Z,29.86
2018-02-16T14:40:20.193Z,30.57
2018-02-16T14:42:47.664Z,29.38
2018-02-16T14:45:15.241Z,30.04
2018-02-16T14:47:42.705Z,30.16
2018-02-16T14:50:10.149Z,28.13
2018-02-16T14:52:37.618Z,29.73
2018-02-16T14:55:05.046Z,29.08
2018-02-16T14:57:35.001Z,29.46
2018-02-16T15:00:03.670Z,30.44
2018-02-16T15:02:31.201Z,30.33
2018-02-16T15:04:58.658Z,30.12
2018-02-16T15:07:26.111Z,31.86
2018-02-16T15:09:53.559Z,32.88
2018-02-16T15:12:20.992Z,33.99
2018-02-16T15:14:48.454Z,35.01
2018-02-16T15:17:16.073Z,35.49
2018-02-16T15:19:43.769Z,36.23
2018-02-16T15:22:11.229Z,36.72
2018-02-16T15:24:38.682Z,37.42
2018-02-16T15:27:06.117Z,37.19
2018-02-16T15:29:33.782Z,36.89
2018-02-16T15:32:01.249Z,37.20
2018-02-16T15:34:28.698Z,37.96
2018-02-16T15:36:56.134Z,38.40
2018-02-16T15:39:29.589Z,38.84
2018-02-16T15:41:59.085Z,39.01
2018-02-16T15:44:26.776Z,37.18
2018-02-16T15:46:54.266Z,38.72
2018-02-16T15:49:21.717Z,38.53
2018-02-16T15:51:50.546Z,39.34
2018-02-16T15:54:18.056Z,39.27
2018-02-16T15:56:45.509Z,39.75
2018-02-16T15:59:12.940Z,38.98
2018-02-16T16:01:40.401Z,38.90
2018-02-16T16:04:07.968Z,38.84
2018-02-16T16:06:35.402Z,40.10
2018-02-16T16:09:02.854Z,39.86
2018-02-16T16:11:30.434Z,39.85
2018-02-16T16:13:57.911Z,39.80
2018-02-16T16:16:25.417Z,40.51
2018-02-16T16:18:52.862Z,40.86
2018-02-16T16:21:21.883Z,40.72
2018-02-16T16:23:49.608Z,42.08
2018-02-16T16:26:17.026Z,41.30
2018-02-16T16:28:44.472Z,40.77
2018-02-16T16:31:12.006Z,41.97
2018-02-16T16:33:39.594Z,44.09
2018-02-16T16:36:07.033Z,43.04
2018-02-16T16:38:34.525Z,42.24
2018-02-16T16:41:02.068Z,43.59
2018-02-16T16:43:29.540Z,43.70
2018-02-16T16:45:56.993Z,44.14
2018-02-16T16:48:24.522Z,44.49
2018-02-16T16:50:52.035Z,44.47
2018-02-16T16:53:19.588Z,45.62
2018-02-16T16:55:47.224Z,44.63
2018-02-16T16:58:15.704Z,45.41
2018-02-16T17:00:43.194Z,46.01
2018-02-16T17:03:10.644Z,46.12
2018-02-16T17:05:38.246Z,46.94
2018-02-16T17:08:05.694Z,45.37
2018-02-16T17:10:33.125Z,45.00
2018-02-16T17:13:00.682Z,45.31
2018-02-16T17:15:28.172Z,46.91
2018-02-16T17:17:55.674Z,47.02
2018-02-16T17:20:23.104Z,47.07
2018-02-16T17:22:50.559Z,46.05
2018-02-16T17:25:17.992Z,46.74
2018-02-16T17:27:45.859Z,47.53
2018-02-16T17:30:13.316Z,48.93
2018-02-16T17:32:40.846Z,47.89
2018-02-16T17:35:08.418Z,47.52
2018-02-16T17:37:35.851Z,46.95
2018-02-16T17:40:03.304Z,47.36
2018-02-16T17:42:30.720Z,48.42
2018-02-16T17:44:58.161Z,49.78
2018-02-16T17:47:25.596Z,49.73
2018-02-16T17:49:53.050Z,49.33
2018-02-16T17:52:20.479Z,49.63
2018-02-16T17:54:47.925Z,49.64
2018-02-16T17:57:15.381Z,49.88
2018-02-16T17:59:42.817Z,49.84
2018-02-16T18:02:10.290Z,49.68
2018-02-16T18:04:37.889Z,49.25
2018-02-16T18:07:05.337Z,48.56
2018-02-16T18:09:32.774Z,48.76
2018-02-16T18:12:00.544Z,49.29
2018-02-16T18:14:27.973Z,49.15
2018-02-16T18:16:55.417Z,50.32
2018-02-16T18:19:22.850Z,49.17
2018-02-16T18:21:50.377Z,49.85
2018-02-16T18:24:17.814Z,49.94
2018-02-16T18:26:46.136Z,50.64
2018-02-16T18:29:13.571Z,51.48
2018-02-16T18:31:40.996Z,51.54
2018-02-16T18:34:08.455Z,51.21
2018-02-16T18:36:35.876Z,51.05
2018-02-16T18:39:03.330Z,52.73
2018-02-16T18:41:30.784Z,53.12
2018-02-16T18:43:58.249Z,53.18
2018-02-16T18:46:25.744Z,52.17
2018-02-16T18:48:53.185Z,53.99
2018-02-16T18:51:20.633Z,52.77
2018-02-16T18:53:48.089Z,53.00
2018-02-16T18:56:16.502Z,53.71
2018-02-16T18:58:43.947Z,53.60
2018-02-16T19:01:11.969Z,53.35
2018-02-16T19:03:39.474Z,53.77
2018-02-16T19:06:06.993Z,53.20
2018-02-16T19:08:34.466Z,52.98
2018-02-16T19:11:01.949Z,54.56
2018-02-16T19:13:29.428Z,54.16
2018-02-16T19:15:56.929Z,55.01
2018-02-16T19:18:24.348Z,53.96
2018-02-16T19:20:51.778Z,54.01
2018-02-16T19:23:19.230Z,54.41
2018-02-16T19:25:46.898Z,54.46
2018-02-16T19:28:14.453Z,53.35
2018-02-16T19:30:41.893Z,53.21
2018-02-16T19:33:09.341Z,54.13
2018-02-16T19:35:37.162Z,53.36
2018-02-16T19:38:04.689Z,52.83
2018-02-16T19:40:32.129Z,54.19
2018-02-16T19:43:01.114Z,54.28
2018-02-16T19:45:28.563Z,53.92
2018-02-16T19:47:55.986Z,54.04
2018-02-16T19:50:23.611Z,54.47
2018-02-16T19:52:51.078Z,54.72
2018-02-16T19:55:18.626Z,54.19
2018-02-16T19:57:46.582Z,53.77
2018-02-16T20:00:14.504Z,54.71
2018-02-16T20:02:42.020Z,54.10
2018-02-16T20:05:09.499Z,53.47
2018-02-16T20:07:37.397Z,54.85
2018-02-16T20:10:04.934Z,54.51
2018-02-16T20:12:32.467Z,53.79
2018-02-16T20:15:01.815Z,54.24
2018-02-16T20:17:30.377Z,53.81
2018-02-16T20:19:57.851Z,54.82
2018-02-16T20:22:25.365Z,55.15
2018-02-16T20:24:58.037Z,54.94
2018-02-16T20:27:29.890Z,55.15
2018-02-16T20:29:57.739Z,54.81
2018-02-16T20:32:25.219Z,54.77
2018-02-16T20:34:52.710Z,55.34
2018-02-16T20:37:21.317Z,55.15
2018-02-16T20:39:48.915Z,54.52
2018-02-16T20:42:16.846Z,54.92
2018-02-16T20:44:44.296Z,53.58
2018-02-16T20:47:11.965Z,54.25
2018-02-16T20:49:39.428Z,53.19
2018-02-16T20:52:06.863Z,55.54
2018-02-16T20:54:34.392Z,54.80
2018-02-16T20:57:01.841Z,54.28
2018-02-16T20:59:29.281Z,53.66
2018-02-16T21:01:56.713Z,55.18
2018-02-16T21:04:25.157Z,53.68
2018-02-16T21:06:52.610Z,54.23
2018-02-16T21:09:20.069Z,54.33
2018-02-16T21:11:47.516Z,54.28
2018-02-16T21:14:14.974Z,54.61
2018-02-16T21:16:42.999Z,54.71
2018-02-16T21:19:10.598Z,54.64
2018-02-16T21:21:38.070Z,54.38
2018-02-16T21:24:05.625Z,55.28
2018-02-16T21:26:33.214Z,55.14
2018-02-16T21:29:00.637Z,56.57
2018-02-16T21:31:28.128Z,55.26
2018-02-16T21:33:55.565Z,55.27
2018-02-16T21:36:23.018Z,55.54
2018-02-16T21:38:50.478Z,55.79
2018-02-16T21:41:17.929Z,56.84
2018-02-16T21:43:45.407Z,54.97
2018-02-16T21:46:12.864Z,55.32
2018-02-16T21:48:40.292Z,55.78
2018-02-16T21:51:07.756Z,56.22
2018-02-16T21:53:35.313Z,55.78
2018-02-16T21:56:02.769Z,55.21
2018-02-16T21:58:30.193Z,55.49
2018-02-16T22:00:57.642Z,55.61
2018-02-16T22:03:25.061Z,56.17
2018-02-16T22:05:52.654Z,55.29
2018-02-16T22:08:20.122Z,55.85
2018-02-16T22:10:47.552Z,56.79
2018-02-16T22:13:15.222Z,57.22
2018-02-16T22:15:42.808Z,56.91
2018-02-16T22:18:10.595Z,56.78
2018-02-16T22:20:38.473Z,56.21
2018-02-16T22:23:06.542Z,57.87
2018-02-16T22:25:34.045Z,58.36
2018-02-16T22:28:01.683Z,57.53
2018-02-16T22:30:29.416Z,57.32
2018-02-16T22:32:56.866Z,57.45
2018-02-16T22:35:24.443Z,57.04
2018-02-16T22:37:52.108Z,57.38
2018-02-16T22:40:19.702Z,58.05
2018-02-16T22:42:51.273Z,59.04
2018-02-16T22:45:18.906Z,58.93
2018-02-16T22:47:48.560Z,58.78
2018-02-16T22:50:16.089Z,59.49
2018-02-16T22:52:43.805Z,59.16
2018-02-16T22:55:12.213Z,59.38
2018-02-16T22:57:39.978Z,58.15
2018-02-16T23:00:07.524Z,58.49
2018-02-16T23:02:35.176Z,58.02
2018-02-16T23:05:02.685Z,60.12
2018-02-16T23:07:30.247Z,58.82
2018-02-16T23:09:57.724Z,58.56
2018-02-16T23:12:25.503Z,57.84
2018-02-16T23:14:53.002Z,58.69
2018-02-16T23:17:20.645Z,58.49
2018-02-16T23:19:48.208Z,59.25
2018-02-16T23:22:15.987Z,58.37
2018-02-16T23:24:43.723Z,59.66
2018-02-16T23:27:11.410Z,58.91
2018-02-16T23:29:38.969Z,59.08
2018-02-16T23:32:06.556Z,59.19
2018-02-16T23:34:34.251Z,58.43
2018-02-16T23:37:01.805Z,59.55
2018-02-16T23:39:30.864Z,58.51
2018-02-16T23:41:58.346Z,59.71
2018-02-16T23:44:25.797Z,59.25
2018-02-16T23:46:53.403Z,60.07
2018-02-16T23:49:20.877Z,58.05
2018-02-16T23:51:49.019Z,58.38
2018-02-16T23:54:17.657Z,58.52
2018-02-16T23:56:45.601Z,58.78
2018-02-16T23:59:13.070Z,58.22
